| time (UTC) | temp C | wind direction | speed KPH | gust KPH | rain 1hr cm | rain 24hr cm | rain mn cm | humidity % | barometer mb |
| 20260506231610 | 21 | 300 | 6.4 | 8.0 | 0.00 | 0.00 | 0.00 | 74 | 1007.4 |
| 20260506231109 | 21 | 222 | 3.2 | 3.2 | 0.00 | 0.00 | 0.00 | 74 | 1007.4 |
| 20260506230605 | 21 | 214 | 3.2 | 3.2 | 0.00 | 0.00 | 0.00 | 73 | 1007.4 |
| 20260506225559 | 21 | 233 | 4.8 | 8.0 | 0.00 | 0.00 | 0.00 | 73 | 1007.3 |
| 20260506225055 | 21 | 288 | 6.4 | 8.0 | 0.00 | 0.00 | 0.00 | 73 | 1007.1 |
| 20260506224552 | 21 | 231 | 1.6 | 1.6 | 0.00 | 0.00 | 0.00 | 72 | 1007.2 |
| 20260506224049 | 21 | 216 | 3.2 | 3.2 | 0.00 | 0.00 | 0.00 | 72 | 1007.1 |
| 20260506223545 | 21 | 212 | 3.2 | 3.2 | 0.00 | 0.00 | 0.00 | 73 | 1007.1 |
| 20260506223041 | 21 | 246 | 1.6 | 1.6 | 0.00 | 0.00 | 0.00 | 73 | 1007.3 |
| 20260506222538 | 21 | 212 | 4.8 | 8.0 | 0.00 | 0.00 | 0.00 | 73 | 1007.4 |
| 20260506222034 | 21 | 248 | 6.4 | 8.0 | 0.00 | 0.00 | 0.00 | 73 | 1007.2 |
| 20260506221532 | 21 | 194 | 3.2 | 4.8 | 0.00 | 0.00 | 0.00 | 72 | 1007.4 |
| 20260506221030 | 21 | 226 | 3.2 | 3.2 | 0.00 | 0.00 | 0.00 | 72 | 1007.1 |
| 20260506220526 | 21 | 285 | 3.2 | 3.2 | 0.00 | 0.00 | 0.00 | 73 | 1007.2 |
| 20260506220021 | 21 | 196 | 4.8 | 9.7 | 0.00 | 0.00 | 0.00 | 72 | 1007.2 |
| 20260506215519 | 21 | 252 | 4.8 | 9.7 | 0.00 | 0.00 | 0.00 | 72 | 1007.1 |
| 20260506215014 | 21 | 210 | 3.2 | 3.2 | 0.00 | 0.00 | 0.00 | 72 | 1007.0 |
| 20260506214511 | 21 | 189 | 4.8 | 8.0 | 0.00 | 0.00 | 0.00 | 72 | 1006.8 |
| 20260506214008 | 21 | 211 | 8.0 | 11.3 | 0.00 | 0.00 | 0.00 | 72 | 1006.9 |
| 20260506213507 | 21 | 185 | 4.8 | 4.8 | 0.00 | 0.00 | 0.00 | 73 | 1006.9 |
| 20260506213003 | 21 | 215 | 3.2 | 4.8 | 0.00 | 0.00 | 0.00 | 74 | 1006.9 |
| 20260506212459 | 21 | 213 | 4.8 | 4.8 | 0.00 | 0.00 | 0.00 | 73 | 1006.8 |
| 20260506211954 | 20 | 232 | 1.6 | 3.2 | 0.00 | 0.00 | 0.00 | 75 | 1006.8 |
| 20260506211451 | 20 | 258 | 6.4 | 9.7 | 0.00 | 0.00 | 0.00 | 75 | 1006.9 |
| 20260506210948 | 20 | 187 | 1.6 | 1.6 | 0.00 | 0.00 | 0.00 | 75 | 1006.7 |
| 20260506210444 | 20 | 229 | 3.2 | 3.2 | 0.00 | 0.00 | 0.00 | 75 | 1006.7 |
| 20260506205942 | 21 | 238 | 1.6 | 1.6 | 0.00 | 0.00 | 0.00 | 75 | 1006.4 |
| 20260506205438 | 20 | 187 | 8.0 | 11.3 | 0.00 | 0.00 | 0.00 | 75 | 1006.7 |
| 20260506204934 | 20 | 220 | 3.2 | 3.2 | 0.00 | 0.00 | 0.00 | 76 | 1006.8 |
| 20260506204432 | 20 | 143 | 6.4 | 8.0 | 0.00 | 0.00 | 0.00 | 76 | 1006.7 |
| 20260506203929 | 20 | 235 | 4.8 | 9.7 | 0.00 | 0.00 | 0.00 | 77 | 1006.5 |
| 20260506203426 | 20 | 131 | 3.2 | 3.2 | 0.00 | 0.00 | 0.00 | 78 | 1006.6 |
| 20260506202923 | 20 | 271 | 3.2 | 4.8 | 0.00 | 0.00 | 0.00 | 78 | 1006.5 |
| 20260506202420 | 20 | 222 | 9.7 | 17.7 | 0.00 | 0.00 | 0.00 | 77 | 1006.5 |
| 20260506201916 | 20 | 161 | 8.0 | 9.7 | 0.00 | 0.00 | 0.00 | 78 | 1006.8 |
| 20260506201414 | 20 | 236 | 6.4 | 8.0 | 0.00 | 0.00 | 0.00 | 78 | 1007.0 |
| 20260506200910 | 20 | 243 | 3.2 | 3.2 | 0.00 | 0.00 | 0.00 | 77 | 1006.6 |
| 20260506200406 | 20 | 194 | 1.6 | 3.2 | 0.00 | 0.00 | 0.00 | 77 | 1007.0 |
| 20260506195903 | 20 | 167 | 4.8 | 4.8 | 0.00 | 0.00 | 0.00 | 77 | 1007.1 |
| 20260506195400 | 20 | 218 | 6.4 | 11.3 | 0.00 | 0.00 | 0.00 | 77 | 1007.1 |
| 20260506194857 | 20 | 206 | 1.6 | 3.2 | 0.00 | 0.00 | 0.00 | 78 | 1007.0 |
| 20260506194354 | 19 | 285 | 4.8 | 9.7 | 0.00 | 0.00 | 0.00 | 78 | 1007.1 |
| 20260506193851 | 19 | 213 | 6.4 | 11.3 | 0.00 | 0.00 | 0.00 | 78 | 1007.2 |
| 20260506193348 | 20 | 214 | 4.8 | 8.0 | 0.00 | 0.00 | 0.00 | 77 | 1007.2 |
| 20260506192844 | 19 | 232 | 4.8 | 4.8 | 0.00 | 0.00 | 0.00 | 78 | 1007.4 |
| 20260506192341 | 19 | 159 | 3.2 | 3.2 | 0.00 | 0.00 | 0.00 | 78 | 1007.2 |
| 20260506191838 | 19 | 259 | 6.4 | 9.7 | 0.00 | 0.00 | 0.00 | 79 | 1007.3 |
| 20260506191334 | 19 | 197 | 3.2 | 3.2 | 0.00 | 0.00 | 0.00 | 80 | 1007.5 |
| 20260506190832 | 18 | 205 | 6.4 | 9.7 | 0.00 | 0.00 | 0.00 | 80 | 1007.5 |
| 20260506190328 | 18 | 246 | 4.8 | 4.8 | 0.00 | 0.00 | 0.00 | 82 | 1007.4 |
| 20260506185825 | 19 | 179 | 14.5 | 22.5 | 0.00 | 0.00 | 0.00 | 81 | 1007.6 |
| 20260506185322 | 19 | 183 | 11.3 | 16.1 | 0.00 | 0.00 | 0.00 | 78 | 1007.5 |
| 20260506184819 | 19 | 200 | 4.8 | 4.8 | 0.00 | 0.00 | 0.00 | 78 | 1007.7 |
| 20260506184316 | 19 | 257 | 4.8 | 4.8 | 0.00 | 0.00 | 0.00 | 78 | 1007.5 |
| 20260506183813 | 19 | 217 | 4.8 | 8.0 | 0.00 | 0.00 | 0.00 | 79 | 1007.4 |
| 20260506183308 | 20 | 265 | 6.4 | 8.0 | 0.00 | 0.00 | 0.00 | 75 | 1007.4 |
| 20260506182806 | 20 | 243 | 3.2 | 4.8 | 0.00 | 0.00 | 0.00 | 72 | 1007.6 |
| 20260506182306 | 20 | 200 | 4.8 | 8.0 | 0.00 | 0.00 | 0.00 | 72 | 1007.8 |
| 20260506181800 | 21 | 229 | 6.4 | 9.7 | 0.00 | 0.00 | 0.00 | 71 | 1007.6 |
| 20260506181258 | 21 | 212 | 6.4 | 8.0 | 0.00 | 0.00 | 0.00 | 71 | 1007.6 |
| 20260506180755 | 20 | 214 | 8.0 | 12.9 | 0.00 | 0.00 | 0.00 | 72 | 1008.0 |
| 20260506180251 | 20 | 185 | 8.0 | 11.3 | 0.00 | 0.00 | 0.00 | 74 | 1007.8 |
| 20260506175747 | 20 | 194 | 6.4 | 8.0 | 0.00 | 0.00 | 0.00 | 76 | 1007.8 |
| 20260506175244 | 20 | 197 | 1.6 | 3.2 | 0.00 | 0.00 | 0.00 | 78 | 1008.0 |
| 20260506174742 | 20 | 130 | 4.8 | 9.7 | 0.00 | 0.00 | 0.00 | 77 | 1008.1 |
| 20260506174239 | 20 | 191 | 6.4 | 9.7 | 0.00 | 0.00 | 0.00 | 78 | 1008.1 |
| 20260506173737 | 20 | 175 | 11.3 | 12.9 | 0.00 | 0.00 | 0.00 | 78 | 1008.1 |
| 20260506173233 | 20 | 141 | 6.4 | 9.7 | 0.00 | 0.00 | 0.00 | 78 | 1008.1 |
| 20260506172730 | 20 | 189 | 4.8 | 4.8 | 0.00 | 0.00 | 0.00 | 80 | 1008.2 |
| 20260506172226 | 20 | 119 | 8.0 | 12.9 | 0.00 | 0.00 | 0.00 | 80 | 1008.0 |
| 20260506171724 | 19 | 184 | 8.0 | 11.3 | 0.00 | 0.00 | 0.00 | 81 | 1008.4 |
| 20260506171221 | 19 | 184 | 6.4 | 9.7 | 0.00 | 0.00 | 0.00 | 81 | 1008.2 |
| 20260506170719 | 20 | 134 | 6.4 | 12.9 | 0.00 | 0.00 | 0.00 | 76 | 1008.4 |
| 20260506170215 | 20 | 185 | 3.2 | 3.2 | 0.00 | 0.00 | 0.00 | 75 | 1008.5 |
| 20260506165714 | 20 | 238 | 6.4 | 9.7 | 0.00 | 0.00 | 0.00 | 74 | 1008.5 |
| 20260506165210 | 20 | 176 | 11.3 | 12.9 | 0.00 | 0.00 | 0.00 | 73 | 1008.8 |
| 20260506164708 | 20 | 179 | 11.3 | 17.7 | 0.00 | 0.00 | 0.00 | 73 | 1008.9 |
| 20260506164205 | 20 | 198 | 6.4 | 11.3 | 0.00 | 0.00 | 0.00 | 76 | 1009.0 |
| 20260506163701 | 20 | 202 | 4.8 | 4.8 | 0.00 | 0.00 | 0.00 | 78 | 1009.3 |
| 20260506163156 | 20 | 181 | 9.7 | 12.9 | 0.00 | 0.00 | 0.00 | 76 | 1009.5 |
| 20260506162652 | 20 | 176 | 6.4 | 9.7 | 0.00 | 0.00 | 0.00 | 76 | 1009.3 |
| 20260506162150 | 19 | 179 | 12.9 | 14.5 | 0.00 | 0.00 | 0.00 | 77 | 1009.4 |
| 20260506161647 | 20 | 178 | 4.8 | 8.0 | 0.00 | 0.00 | 0.00 | 76 | 1009.5 |
| 20260506161144 | 20 | 193 | 6.4 | 8.0 | 0.00 | 0.00 | 0.00 | 76 | 1009.6 |
| 20260506160641 | 20 | 154 | 8.0 | 11.3 | 0.00 | 0.00 | 0.00 | 76 | 1009.2 |
| 20260506160138 | 20 | 172 | 4.8 | 4.8 | 0.00 | 0.00 | 0.00 | 74 | 1009.3 |
| 20260506155637 | 20 | 187 | 6.4 | 9.7 | 0.00 | 0.00 | 0.00 | 74 | 1009.7 |
| 20260506155134 | 22 | 210 | 9.7 | 11.3 | 0.00 | 0.00 | 0.00 | 66 | 1009.5 |
| 20260506153236 | 22 | 185 | 16.1 | 20.9 | 0.00 | 0.00 | 0.00 | 64 | 1009.4 |
| 20260506152732 | 21 | 116 | 3.2 | 4.8 | 0.00 | 0.00 | 0.00 | 66 | 1009.5 |
| 20260506152230 | 21 | 175 | 4.8 | 8.0 | 0.00 | 0.00 | 0.00 | 67 | 1009.5 |
| 20260506151729 | 21 | 211 | 12.9 | 14.5 | 0.00 | 0.00 | 0.00 | 67 | 1009.5 |
| 20260506151225 | 21 | 180 | 4.8 | 9.7 | 0.00 | 0.00 | 0.00 | 66 | 1009.6 |
| 20260506150721 | 21 | 200 | 3.2 | 3.2 | 0.00 | 0.00 | 0.00 | 66 | 1009.7 |
| 20260506150219 | 21 | 151 | 8.0 | 9.7 | 0.00 | 0.00 | 0.00 | 65 | 1009.7 |
| 20260506145716 | 22 | 214 | 6.4 | 9.7 | 0.00 | 0.00 | 0.00 | 63 | 1009.4 |
| 20260506145212 | 22 | 239 | 4.8 | 4.8 | 0.00 | 0.00 | 0.00 | 61 | 1009.4 |
| 20260506144710 | 22 | 186 | 16.1 | 32.2 | 0.00 | 0.00 | 0.00 | 59 | 1009.5 |
| 20260506144206 | 22 | 239 | 3.2 | 4.8 | 0.00 | 0.00 | 0.00 | 59 | 1009.5 |
| 20260506143704 | 23 | 194 | 8.0 | 16.1 | 0.00 | 0.00 | 0.00 | 59 | 1009.5 |
| 20260506143202 | 22 | 125 | 6.4 | 9.7 | 0.00 | 0.00 | 0.00 | 60 | 1009.8 |
| 20260506142700 | 22 | 220 | 3.2 | 4.8 | 0.00 | 0.00 | 0.00 | 59 | 1009.7 |
| 20260506142157 | 22 | 205 | 6.4 | 9.7 | 0.00 | 0.00 | 0.00 | 61 | 1009.5 |
| 20260506141655 | 22 | 203 | 12.9 | 14.5 | 0.00 | 0.00 | 0.00 | 61 | 1009.7 |
| 20260506141153 | 22 | 183 | 11.3 | 17.7 | 0.00 | 0.00 | 0.00 | 62 | 1009.8 |
| 20260506140651 | 22 | 212 | 6.4 | 8.0 | 0.00 | 0.00 | 0.00 | 62 | 1009.7 |
| 20260506140147 | 22 | 217 | 3.2 | 3.2 | 0.00 | 0.00 | 0.00 | 62 | 1009.6 |
| 20260506135644 | 22 | 165 | 6.4 | 8.0 | 0.00 | 0.00 | 0.00 | 62 | 1009.4 |
| 20260506135141 | 22 | 262 | 8.0 | 12.9 | 0.00 | 0.00 | 0.00 | 61 | 1009.7 |
| 20260506134637 | 22 | 197 | 4.8 | 9.7 | 0.00 | 0.00 | 0.00 | 63 | 1009.9 |
| 20260506134133 | 22 | 187 | 17.7 | 17.7 | 0.00 | 0.00 | 0.00 | 63 | 1009.9 |
| 20260506133631 | 22 | 181 | 11.3 | 14.5 | 0.00 | 0.00 | 0.00 | 63 | 1010.1 |
| 20260506133127 | 21 | 223 | 8.0 | 9.7 | 0.00 | 0.00 | 0.00 | 65 | 1010.2 |
| 20260506132625 | 22 | 205 | 8.0 | 9.7 | 0.00 | 0.00 | 0.00 | 64 | 1009.9 |
| 20260506132122 | 21 | 291 | 17.7 | 24.1 | 0.00 | 0.00 | 0.00 | 65 | 1010.3 |
| 20260506131619 | 21 | 271 | 8.0 | 11.3 | 0.00 | 0.00 | 0.00 | 65 | 1010.4 |
| 20260506131115 | 21 | 224 | 6.4 | 8.0 | 0.00 | 0.00 | 0.00 | 67 | 1010.4 |
| 20260506130612 | 21 | 190 | 9.7 | 12.9 | 0.00 | 0.00 | 0.00 | 67 | 1010.1 |
| 20260506130110 | 21 | 69 | 1.6 | 3.2 | 0.00 | 0.00 | 0.00 | 68 | 1010.2 |
| 20260506125608 | 20 | 259 | 3.2 | 3.2 | 0.00 | 0.00 | 0.00 | 70 | 1010.1 |
| 20260506125105 | 20 | 202 | 4.8 | 4.8 | 0.00 | 0.00 | 0.00 | 70 | 1010.2 |
| 20260506124603 | 20 | 190 | 9.7 | 20.9 | 0.00 | 0.00 | 0.00 | 71 | 1010.0 |
| 20260506124100 | 18 | 184 | 11.3 | 14.5 | 0.00 | 0.00 | 0.00 | 74 | 1010.3 |
| 20260506123558 | 18 | 232 | 1.6 | 3.2 | 0.00 | 0.00 | 0.00 | 75 | 1010.2 |
| 20260506123056 | 18 | 194 | 3.2 | 3.2 | 0.00 | 0.00 | 0.00 | 75 | 1010.0 |
| 20260506122552 | 18 | 204 | 3.2 | 3.2 | 0.00 | 0.00 | 0.00 | 75 | 1010.2 |
| 20260506122051 | 18 | 265 | 6.4 | 9.7 | 0.00 | 0.00 | 0.00 | 74 | 1010.2 |
| 20260506121548 | 18 | 271 | 8.0 | 11.3 | 0.00 | 0.00 | 0.00 | 76 | 1010.4 |
| 20260506121044 | 18 | 211 | 0.0 | 3.2 | 0.00 | 0.00 | 0.00 | 77 | 1010.1 |
| 20260506120542 | 18 | 209 | 4.8 | 4.8 | 0.00 | 0.00 | 0.00 | 77 | 1010.3 |
| 20260506120039 | 18 | 203 | 4.8 | 8.0 | 0.00 | 0.00 | 0.00 | 77 | 1010.3 |
| 20260506115537 | 18 | 149 | 4.8 | 9.7 | 0.00 | 0.00 | 0.00 | 77 | 1010.4 |
| 20260506115036 | 18 | 213 | 8.0 | 9.7 | 0.00 | 0.00 | 0.00 | 76 | 1010.2 |
| 20260506114532 | 18 | 205 | 6.4 | 8.0 | 0.00 | 0.00 | 0.00 | 77 | 1010.4 |
| 20260506114031 | 17 | 190 | 8.0 | 11.3 | 0.00 | 0.00 | 0.00 | 78 | 1010.6 |
| 20260506113528 | 17 | 182 | 4.8 | 4.8 | 0.00 | 0.00 | 0.00 | 79 | 1010.5 |
| 20260506113026 | 17 | 207 | 6.4 | 8.0 | 0.00 | 0.00 | 0.00 | 80 | 1010.7 |
| 20260506112522 | 16 | 192 | 9.7 | 14.5 | 0.00 | 0.00 | 0.00 | 81 | 1010.5 |
| 20260506112019 | 16 | 176 | 8.0 | 11.3 | 0.00 | 0.00 | 0.00 | 81 | 1010.6 |
| 20260506111517 | 16 | 212 | 3.2 | 3.2 | 0.00 | 0.00 | 0.00 | 81 | 1010.5 |
| 20260506111014 | 16 | 167 | 9.7 | 17.7 | 0.00 | 0.00 | 0.00 | 81 | 1010.5 |
| 20260506110512 | 16 | 233 | 4.8 | 8.0 | 0.00 | 0.00 | 0.00 | 81 | 1010.3 |
| 20260506110009 | 16 | 189 | 8.0 | 12.9 | 0.00 | 0.00 | 0.00 | 82 | 1010.5 |
| 20260506105505 | 16 | 188 | 8.0 | 11.3 | 0.00 | 0.00 | 0.00 | 83 | 1010.5 |
| 20260506105002 | 16 | 145 | 12.9 | 16.1 | 0.00 | 0.00 | 0.00 | 83 | 1010.3 |
| 20260506104500 | 16 | 184 | 4.8 | 8.0 | 0.00 | 0.00 | 0.00 | 84 | 1010.3 |
| 20260506103958 | 16 | 195 | 3.2 | 9.7 | 0.00 | 0.00 | 0.00 | 84 | 1010.5 |
| 20260506103455 | 16 | 171 | 8.0 | 12.9 | 0.00 | 0.00 | 0.00 | 85 | 1010.6 |
| 20260506102951 | 16 | 183 | 8.0 | 9.7 | 0.00 | 0.00 | 0.00 | 85 | 1010.4 |
| 20260506102450 | 16 | 197 | 4.8 | 8.0 | 0.00 | 0.00 | 0.00 | 85 | 1010.2 |
| 20260506101947 | 15 | 221 | 6.4 | 9.7 | 0.00 | 0.00 | 0.00 | 85 | 1010.2 |
| 20260506101443 | 16 | 225 | 8.0 | 9.7 | 0.00 | 0.00 | 0.00 | 85 | 1010.1 |
| 20260506100941 | 16 | 198 | 3.2 | 4.8 | 0.00 | 0.00 | 0.00 | 85 | 1010.0 |
| 20260506100439 | 16 | 191 | 4.8 | 4.8 | 0.00 | 0.00 | 0.00 | 85 | 1010.3 |
| 20260506095936 | 16 | 203 | 6.4 | 12.9 | 0.00 | 0.00 | 0.00 | 86 | 1010.3 |
| 20260506095435 | 16 | 170 | 6.4 | 8.0 | 0.00 | 0.00 | 0.00 | 85 | 1010.1 |
| 20260506094931 | 16 | 183 | 4.8 | 4.8 | 0.00 | 0.00 | 0.00 | 85 | 1010.1 |
| 20260506094430 | 16 | 224 | 12.9 | 14.5 | 0.00 | 0.00 | 0.00 | 85 | 1010.0 |
| 20260506093927 | 16 | 199 | 3.2 | 4.8 | 0.00 | 0.00 | 0.00 | 85 | 1010.0 |
| 20260506093424 | 16 | 202 | 9.7 | 11.3 | 0.00 | 0.00 | 0.00 | 86 | 1010.0 |
| 20260506092922 | 16 | 203 | 8.0 | 9.7 | 0.00 | 0.00 | 0.00 | 85 | 1010.2 |
| 20260506092420 | 16 | 181 | 6.4 | 8.0 | 0.00 | 0.00 | 0.00 | 86 | 1010.3 |
| 20260506091916 | 16 | 181 | 1.6 | 1.6 | 0.00 | 0.00 | 0.00 | 86 | 1010.4 |
| 20260506091414 | 16 | 237 | 8.0 | 9.7 | 0.00 | 0.00 | 0.00 | 86 | 1010.5 |
| 20260506090911 | 16 | 157 | 3.2 | 3.2 | 0.00 | 0.00 | 0.00 | 85 | 1010.4 |
| 20260506090409 | 16 | 178 | 4.8 | 9.7 | 0.00 | 0.00 | 0.00 | 85 | 1010.6 |
| 20260506085905 | 16 | 190 | 8.0 | 11.3 | 0.00 | 0.00 | 0.00 | 86 | 1010.4 |
| 20260506085402 | 16 | 165 | 8.0 | 11.3 | 0.00 | 0.00 | 0.00 | 85 | 1010.4 |
| 20260506084858 | 16 | 205 | 6.4 | 8.0 | 0.00 | 0.00 | 0.00 | 85 | 1010.4 |
| 20260506084355 | 16 | 221 | 4.8 | 4.8 | 0.00 | 0.00 | 0.00 | 85 | 1010.6 |
| 20260506083851 | 16 | 156 | 1.6 | 3.2 | 0.00 | 0.00 | 0.00 | 85 | 1010.6 |
| 20260506083349 | 16 | 210 | 3.2 | 3.2 | 0.00 | 0.00 | 0.00 | 85 | 1010.5 |
| 20260506082846 | 16 | 211 | 4.8 | 4.8 | 0.00 | 0.00 | 0.00 | 85 | 1010.5 |
| 20260506082343 | 16 | 185 | 9.7 | 11.3 | 0.00 | 0.00 | 0.00 | 85 | 1010.3 |
| 20260506081839 | 16 | 176 | 1.6 | 3.2 | 0.00 | 0.00 | 0.00 | 84 | 1010.5 |
| 20260506081337 | 16 | 206 | 8.0 | 9.7 | 0.00 | 0.00 | 0.00 | 84 | 1010.6 |
| 20260506080835 | 16 | 177 | 8.0 | 11.3 | 0.00 | 0.00 | 0.00 | 84 | 1010.6 |
| 20260506080331 | 16 | 81 | 3.2 | 4.8 | 0.00 | 0.00 | 0.00 | 84 | 1010.5 |
| 20260506073315 | 16 | 177 | 4.8 | 4.8 | 0.00 | 0.00 | 0.00 | 84 | 1010.5 |
| 20260506072812 | 16 | 214 | 11.3 | 12.9 | 0.00 | 0.00 | 0.00 | 83 | 1010.7 |
| 20260506072309 | 16 | 183 | 8.0 | 9.7 | 0.00 | 0.00 | 0.00 | 83 | 1010.7 |
| 20260506071807 | 16 | 193 | 3.2 | 3.2 | 0.00 | 0.00 | 0.00 | 83 | 1011.1 |
| 20260506071305 | 16 | 177 | 4.8 | 9.7 | 0.00 | 0.00 | 0.00 | 82 | 1010.7 |
| 20260506070802 | 16 | 284 | 11.3 | 14.5 | 0.00 | 0.00 | 0.00 | 82 | 1010.9 |
| 20260506070259 | 16 | 184 | 6.4 | 9.7 | 0.00 | 0.00 | 0.00 | 82 | 1010.7 |
| 20260506062236 | 17 | 180 | 3.2 | 4.8 | 0.00 | 0.00 | 0.00 | 81 | 1010.7 |
| 20260506061731 | 17 | 210 | 6.4 | 9.7 | 0.00 | 0.00 | 0.00 | 81 | 1010.8 |
| 20260506061229 | 17 | 201 | 1.6 | 3.2 | 0.00 | 0.00 | 0.00 | 81 | 1010.6 |
| 20260506060728 | 17 | 192 | 8.0 | 9.7 | 0.00 | 0.00 | 0.00 | 81 | 1010.5 |
| 20260506060224 | 16 | 196 | 6.4 | 8.0 | 0.00 | 0.00 | 0.00 | 81 | 1010.9 |
| 20260506051156 | 17 | 204 | 6.4 | 8.0 | 0.00 | 0.00 | 0.00 | 80 | 1011.1 |
| 20260506050655 | 17 | 217 | 3.2 | 4.8 | 0.00 | 0.00 | 0.00 | 79 | 1011.2 |
| 20260506050151 | 17 | 193 | 4.8 | 4.8 | 0.00 | 0.00 | 0.00 | 80 | 1011.4 |
| 20260506044642 | 17 | 180 | 11.3 | 16.1 | 0.00 | 0.00 | 0.00 | 79 | 1011.5 |
| 20260506044139 | 17 | 184 | 4.8 | 8.0 | 0.00 | 0.00 | 0.00 | 79 | 1011.2 |
| 20260506043636 | 17 | 223 | 4.8 | 4.8 | 0.00 | 0.00 | 0.00 | 78 | 1011.3 |
| 20260506043134 | 17 | 203 | 8.0 | 12.9 | 0.00 | 0.00 | 0.00 | 78 | 1011.3 |
| 20260506042633 | 17 | 189 | 12.9 | 16.1 | 0.00 | 0.00 | 0.00 | 78 | 1011.5 |
| 20260506042131 | 17 | 165 | 17.7 | 20.9 | 0.00 | 0.00 | 0.00 | 77 | 1011.3 |
| 20260506041629 | 17 | 156 | 3.2 | 4.8 | 0.00 | 0.00 | 0.00 | 77 | 1011.3 |
| 20260506041125 | 17 | 200 | 6.4 | 9.7 | 0.00 | 0.00 | 0.00 | 76 | 1011.2 |
| 20260506040623 | 17 | 210 | 8.0 | 14.5 | 0.00 | 0.00 | 0.00 | 76 | 1011.2 |
| 20260506040120 | 17 | 211 | 3.2 | 4.8 | 0.00 | 0.00 | 0.00 | 76 | 1011.3 |
| 20260506035617 | 18 | 282 | 9.7 | 14.5 | 0.00 | 0.00 | 0.00 | 75 | 1011.3 |
| 20260506035113 | 18 | 192 | 9.7 | 11.3 | 0.00 | 0.00 | 0.00 | 75 | 1011.2 |
| 20260506034611 | 18 | 196 | 12.9 | 22.5 | 0.00 | 0.00 | 0.00 | 75 | 1011.3 |
| 20260506034108 | 18 | 212 | 11.3 | 12.9 | 0.00 | 0.00 | 0.00 | 74 | 1011.3 |
| 20260506033605 | 18 | 229 | 6.4 | 9.7 | 0.00 | 0.00 | 0.00 | 74 | 1011.2 |
| 20260506033101 | 18 | 181 | 6.4 | 9.7 | 0.00 | 0.00 | 0.00 | 74 | 1011.2 |
| 20260506032559 | 18 | 194 | 4.8 | 8.0 | 0.00 | 0.00 | 0.00 | 74 | 1011.1 |
| 20260506032056 | 18 | 216 | 4.8 | 9.7 | 0.00 | 0.00 | 0.00 | 74 | 1011.3 |
| 20260506031553 | 18 | 242 | 4.8 | 8.0 | 0.00 | 0.00 | 0.00 | 73 | 1011.2 |
| 20260506031050 | 18 | 206 | 9.7 | 12.9 | 0.00 | 0.00 | 0.00 | 73 | 1011.2 |
| 20260506030548 | 18 | 262 | 6.4 | 9.7 | 0.00 | 0.00 | 0.00 | 73 | 1011.2 |
| 20260506030045 | 18 | 189 | 11.3 | 14.5 | 0.00 | 0.00 | 0.00 | 73 | 1011.3 |
| 20260506025542 | 18 | 202 | 6.4 | 9.7 | 0.00 | 0.00 | 0.00 | 73 | 1011.3 |
| 20260506025038 | 18 | 173 | 6.4 | 11.3 | 0.00 | 0.00 | 0.00 | 72 | 1011.2 |
| 20260506024535 | 18 | 222 | 11.3 | 12.9 | 0.00 | 0.00 | 0.00 | 72 | 1011.1 |
| 20260506024031 | 18 | 192 | 11.3 | 14.5 | 0.00 | 0.00 | 0.00 | 71 | 1011.4 |
| 20260506023527 | 18 | 237 | 12.9 | 17.7 | 0.00 | 0.00 | 0.00 | 71 | 1011.3 |
| 20260506023025 | 18 | 161 | 9.7 | 16.1 | 0.00 | 0.00 | 0.00 | 71 | 1011.4 |
| 20260506022523 | 19 | 231 | 9.7 | 16.1 | 0.00 | 0.00 | 0.00 | 71 | 1011.4 |
| 20260506022020 | 18 | 223 | 17.7 | 22.5 | 0.00 | 0.00 | 0.00 | 71 | 1011.3 |
| 20260506021517 | 18 | 246 | 8.0 | 17.7 | 0.00 | 0.00 | 0.00 | 71 | 1011.7 |
| 20260506021015 | 18 | 219 | 9.7 | 16.1 | 0.00 | 0.00 | 0.00 | 71 | 1011.4 |
| 20260506020512 | 19 | 190 | 3.2 | 4.8 | 0.00 | 0.00 | 0.00 | 71 | 1011.7 |
| 20260506020010 | 19 | 248 | 6.4 | 8.0 | 0.00 | 0.00 | 0.00 | 71 | 1011.3 |
| 20260506015507 | 19 | 198 | 9.7 | 11.3 | 0.00 | 0.00 | 0.00 | 70 | 1011.5 |
| 20260506015003 | 19 | 197 | 4.8 | 4.8 | 0.00 | 0.00 | 0.00 | 70 | 1011.3 |
| 20260506014501 | 19 | 172 | 6.4 | 8.0 | 0.00 | 0.00 | 0.00 | 70 | 1011.3 |
| 20260506013956 | 19 | 180 | 8.0 | 12.9 | 0.00 | 0.00 | 0.00 | 70 | 1011.6 |
| 20260506013455 | 19 | 68 | 8.0 | 12.9 | 0.00 | 0.00 | 0.00 | 69 | 1011.5 |
| 20260506012950 | 20 | 210 | 11.3 | 16.1 | 0.00 | 0.00 | 0.00 | 69 | 1011.1 |
| 20260506012447 | 20 | 225 | 6.4 | 9.7 | 0.00 | 0.00 | 0.00 | 68 | 1011.3 |
| 20260506011944 | 20 | 152 | 4.8 | 8.0 | 0.00 | 0.00 | 0.00 | 67 | 1011.3 |
| 20260506011442 | 20 | 181 | 14.5 | 16.1 | 0.00 | 0.00 | 0.00 | 66 | 1011.3 |
| 20260506010938 | 20 | 185 | 11.3 | 14.5 | 0.00 | 0.00 | 0.00 | 66 | 1011.0 |
| 20260506010437 | 20 | 266 | 6.4 | 11.3 | 0.00 | 0.00 | 0.00 | 66 | 1011.0 |
| 20260506005933 | 20 | 193 | 9.7 | 11.3 | 0.00 | 0.00 | 0.00 | 65 | 1010.7 |
| 20260506005431 | 20 | 197 | 12.9 | 20.9 | 0.00 | 0.00 | 0.00 | 64 | 1011.0 |
| 20260506004926 | 20 | 190 | 16.1 | 22.5 | 0.00 | 0.00 | 0.00 | 64 | 1010.7 |
| 20260506004424 | 20 | 259 | 16.1 | 25.7 | 0.00 | 0.00 | 0.00 | 64 | 1010.7 |
| 20260506003920 | 20 | 262 | 11.3 | 17.7 | 0.00 | 0.00 | 0.00 | 63 | 1010.7 |
| 20260506003417 | 20 | 184 | 11.3 | 12.9 | 0.00 | 0.00 | 0.00 | 63 | 1010.8 |
| 20260506002913 | 20 | 273 | 9.7 | 12.9 | 0.00 | 0.00 | 0.00 | 62 | 1010.6 |
| 20260506002409 | 20 | 216 | 12.9 | 17.7 | 0.00 | 0.00 | 0.00 | 62 | 1010.7 |
| 20260506001905 | 20 | 197 | 14.5 | 17.7 | 0.00 | 0.00 | 0.00 | 62 | 1010.6 |
| 20260506001402 | 20 | 165 | 12.9 | 27.4 | 0.00 | 0.00 | 0.00 | 62 | 1010.5 |
| 20260506000859 | 20 | 206 | 9.7 | 12.9 | 0.00 | 0.00 | 0.00 | 62 | 1010.6 |
| 20260506000357 | 20 | 292 | 9.7 | 14.5 | 0.00 | 0.00 | 0.00 | 62 | 1010.5 |
| 20260505235853 | 20 | 217 | 9.7 | 11.3 | 0.00 | 0.00 | 0.00 | 61 | 1010.5 |
| 20260505235351 | 21 | 215 | 9.7 | 11.3 | 0.00 | 0.00 | 0.00 | 60 | 1010.4 |
| 20260505234848 | 21 | 189 | 22.5 | 25.7 | 0.00 | 0.00 | 0.00 | 59 | 1010.3 |
| 20260505234346 | 21 | 169 | 14.5 | 16.1 | 0.00 | 0.00 | 0.00 | 59 | 1010.3 |
| 20260505233842 | 21 | 213 | 11.3 | 14.5 | 0.00 | 0.00 | 0.00 | 59 | 1010.2 |
| 20260505233340 | 21 | 188 | 4.8 | 8.0 | 0.00 | 0.00 | 0.00 | 58 | 1010.2 |
| 20260505232837 | 21 | 170 | 6.4 | 11.3 | 0.00 | 0.00 | 0.00 | 58 | 1009.9 |
| 20260505232335 | 21 | 193 | 4.8 | 8.0 | 0.00 | 0.00 | 0.00 | 58 | 1009.8 |